sensor_id;sensor_type;location;lat;lon;timestamp;temperature;humidity
10512;DHT22;5304;48.604;2.096;2024-02-23T00:02:01;4.70;99.90
10512;DHT22;5304;48.604;2.096;2024-02-23T00:04:46;4.70;99.90
10512;DHT22;5304;48.604;2.096;2024-02-23T00:07:30;4.70;99.90
10512;DHT22;5304;48.604;2.096;2024-02-23T00:10:15;4.70;99.90
10512;DHT22;5304;48.604;2.096;2024-02-23T00:12:59;4.70;99.90
10512;DHT22;5304;48.604;2.096;2024-02-23T00:15:44;4.80;99.90
10512;DHT22;5304;48.604;2.096;2024-02-23T00:18:29;4.70;99.90
10512;DHT22;5304;48.604;2.096;2024-02-23T00:21:13;4.70;99.90
10512;DHT22;5304;48.604;2.096;2024-02-23T00:23:58;4.70;99.90
10512;DHT22;5304;48.604;2.096;2024-02-23T00:26:43;4.60;99.90
10512;DHT22;5304;48.604;2.096;2024-02-23T00:29:27;4.60;99.90
10512;DHT22;5304;48.604;2.096;2024-02-23T00:32:11;4.60;99.90
10512;DHT22;5304;48.604;2.096;2024-02-23T00:34:57;4.60;99.90
10512;DHT22;5304;48.604;2.096;2024-02-23T00:37:41;4.60;99.90
10512;DHT22;5304;48.604;2.096;2024-02-23T00:40:25;4.60;99.90
10512;DHT22;5304;48.604;2.096;2024-02-23T00:43:10;4.70;99.90
10512;DHT22;5304;48.604;2.096;2024-02-23T00:45:54;4.60;99.90
10512;DHT22;5304;48.604;2.096;2024-02-23T00:48:39;4.70;99.90
10512;DHT22;5304;48.604;2.096;2024-02-23T00:51:23;4.70;99.90
10512;DHT22;5304;48.604;2.096;2024-02-23T00:54:07;4.70;99.90
10512;DHT22;5304;48.604;2.096;2024-02-23T00:56:51;4.70;99.90
10512;DHT22;5304;48.604;2.096;2024-02-23T00:59:36;4.80;99.90
10512;DHT22;5304;48.604;2.096;2024-02-23T01:02:20;4.80;99.90
10512;DHT22;5304;48.604;2.096;2024-02-23T01:05:05;4.80;99.90
10512;DHT22;5304;48.604;2.096;2024-02-23T01:07:50;4.70;99.90
10512;DHT22;5304;48.604;2.096;2024-02-23T01:10:35;4.70;99.90
10512;DHT22;5304;48.604;2.096;2024-02-23T01:13:19;4.60;99.90
10512;DHT22;5304;48.604;2.096;2024-02-23T01:16:03;4.70;99.90
10512;DHT22;5304;48.604;2.096;2024-02-23T01:18:47;4.50;99.90
10512;DHT22;5304;48.604;2.096;2024-02-23T01:21:32;4.50;99.90
10512;DHT22;5304;48.604;2.096;2024-02-23T01:24:16;4.50;99.90
10512;DHT22;5304;48.604;2.096;2024-02-23T01:27:00;4.40;99.90
10512;DHT22;5304;48.604;2.096;2024-02-23T01:29:44;4.40;99.90
10512;DHT22;5304;48.604;2.096;2024-02-23T01:32:28;4.40;99.90
10512;DHT22;5304;48.604;2.096;2024-02-23T01:35:13;4.40;99.90
10512;DHT22;5304;48.604;2.096;2024-02-23T01:37:57;4.40;99.90
10512;DHT22;5304;48.604;2.096;2024-02-23T01:40:41;4.40;99.90
10512;DHT22;5304;48.604;2.096;2024-02-23T01:43:25;4.40;99.90
10512;DHT22;5304;48.604;2.096;2024-02-23T01:46:09;4.40;99.90
10512;DHT22;5304;48.604;2.096;2024-02-23T01:48:54;4.40;99.90
10512;DHT22;5304;48.604;2.096;2024-02-23T01:51:38;4.50;99.90
10512;DHT22;5304;48.604;2.096;2024-02-23T01:54:24;4.50;99.90
10512;DHT22;5304;48.604;2.096;2024-02-23T01:57:09;4.60;99.90
10512;DHT22;5304;48.604;2.096;2024-02-23T01:59:54;4.60;99.90
10512;DHT22;5304;48.604;2.096;2024-02-23T02:02:38;4.70;99.90
10512;DHT22;5304;48.604;2.096;2024-02-23T02:05:23;4.70;99.90
10512;DHT22;5304;48.604;2.096;2024-02-23T02:08:07;4.60;99.90
10512;DHT22;5304;48.604;2.096;2024-02-23T02:10:52;4.60;99.90
10512;DHT22;5304;48.604;2.096;2024-02-23T02:13:36;4.60;99.90
10512;DHT22;5304;48.604;2.096;2024-02-23T02:16:20;4.60;99.90
10512;DHT22;5304;48.604;2.096;2024-02-23T02:19:04;4.60;99.90
10512;DHT22;5304;48.604;2.096;2024-02-23T02:21:48;4.60;99.90
10512;DHT22;5304;48.604;2.096;2024-02-23T02:24:33;4.60;99.90
10512;DHT22;5304;48.604;2.096;2024-02-23T02:27:18;4.60;99.90
10512;DHT22;5304;48.604;2.096;2024-02-23T02:30:03;4.60;99.90
10512;DHT22;5304;48.604;2.096;2024-02-23T02:32:47;4.50;99.90
10512;DHT22;5304;48.604;2.096;2024-02-23T02:35:31;4.50;99.90
10512;DHT22;5304;48.604;2.096;2024-02-23T02:38:15;4.50;99.90
10512;DHT22;5304;48.604;2.096;2024-02-23T02:41:00;4.50;99.90
10512;DHT22;5304;48.604;2.096;2024-02-23T02:43:48;4.40;99.90
10512;DHT22;5304;48.604;2.096;2024-02-23T02:46:32;4.40;99.90
10512;DHT22;5304;48.604;2.096;2024-02-23T02:49:17;4.40;99.90
10512;DHT22;5304;48.604;2.096;2024-02-23T02:52:01;4.30;99.90
10512;DHT22;5304;48.604;2.096;2024-02-23T02:54:46;4.40;99.90
10512;DHT22;5304;48.604;2.096;2024-02-23T02:57:30;4.40;99.90
10512;DHT22;5304;48.604;2.096;2024-02-23T03:00:15;4.40;99.90
10512;DHT22;5304;48.604;2.096;2024-02-23T03:02:59;4.40;99.90
10512;DHT22;5304;48.604;2.096;2024-02-23T03:05:43;4.40;99.90
10512;DHT22;5304;48.604;2.096;2024-02-23T03:08:28;4.40;99.90
10512;DHT22;5304;48.604;2.096;2024-02-23T03:11:12;4.40;99.90
10512;DHT22;5304;48.604;2.096;2024-02-23T03:13:56;4.40;99.90
10512;DHT22;5304;48.604;2.096;2024-02-23T03:16:41;4.40;99.90
10512;DHT22;5304;48.604;2.096;2024-02-23T03:19:26;4.40;99.90
10512;DHT22;5304;48.604;2.096;2024-02-23T03:22:10;4.40;99.90
10512;DHT22;5304;48.604;2.096;2024-02-23T03:24:55;4.40;99.90
10512;DHT22;5304;48.604;2.096;2024-02-23T03:27:39;4.40;99.90
10512;DHT22;5304;48.604;2.096;2024-02-23T03:30:23;4.40;99.90
10512;DHT22;5304;48.604;2.096;2024-02-23T03:33:07;4.40;99.90
10512;DHT22;5304;48.604;2.096;2024-02-23T03:35:52;4.40;99.90
10512;DHT22;5304;48.604;2.096;2024-02-23T03:38:36;4.40;99.90
10512;DHT22;5304;48.604;2.096;2024-02-23T03:41:20;4.30;99.90
10512;DHT22;5304;48.604;2.096;2024-02-23T03:44:05;4.30;99.90
10512;DHT22;5304;48.604;2.096;2024-02-23T03:46:49;4.40;99.90
10512;DHT22;5304;48.604;2.096;2024-02-23T03:49:33;4.40;99.90
10512;DHT22;5304;48.604;2.096;2024-02-23T03:52:18;4.40;99.90
10512;DHT22;5304;48.604;2.096;2024-02-23T03:55:02;4.40;99.90
10512;DHT22;5304;48.604;2.096;2024-02-23T03:57:48;4.40;99.90
10512;DHT22;5304;48.604;2.096;2024-02-23T04:00:32;4.40;99.90
10512;DHT22;5304;48.604;2.096;2024-02-23T04:03:17;4.40;99.90
10512;DHT22;5304;48.604;2.096;2024-02-23T04:06:02;4.50;99.90
10512;DHT22;5304;48.604;2.096;2024-02-23T04:08:46;4.50;99.90
10512;DHT22;5304;48.604;2.096;2024-02-23T04:11:31;4.50;99.90
10512;DHT22;5304;48.604;2.096;2024-02-23T04:14:16;4.50;99.90
10512;DHT22;5304;48.604;2.096;2024-02-23T04:17:00;4.40;99.90
10512;DHT22;5304;48.604;2.096;2024-02-23T04:19:44;4.40;99.90
10512;DHT22;5304;48.604;2.096;2024-02-23T04:22:29;4.50;99.90
10512;DHT22;5304;48.604;2.096;2024-02-23T04:25:13;4.40;99.90
10512;DHT22;5304;48.604;2.096;2024-02-23T04:27:58;4.50;99.90
10512;DHT22;5304;48.604;2.096;2024-02-23T04:30:42;4.40;99.90
10512;DHT22;5304;48.604;2.096;2024-02-23T04:33:26;4.40;99.90
10512;DHT22;5304;48.604;2.096;2024-02-23T04:36:10;4.40;99.90
10512;DHT22;5304;48.604;2.096;2024-02-23T04:38:55;4.40;99.90
10512;DHT22;5304;48.604;2.096;2024-02-23T04:41:39;4.40;99.90
10512;DHT22;5304;48.604;2.096;2024-02-23T04:44:23;4.30;99.90
10512;DHT22;5304;48.604;2.096;2024-02-23T04:47:07;4.40;99.90
10512;DHT22;5304;48.604;2.096;2024-02-23T04:49:52;4.40;99.90
10512;DHT22;5304;48.604;2.096;2024-02-23T04:52:37;4.30;99.90
10512;DHT22;5304;48.604;2.096;2024-02-23T04:55:21;4.30;99.90
10512;DHT22;5304;48.604;2.096;2024-02-23T04:58:06;4.30;99.90
10512;DHT22;5304;48.604;2.096;2024-02-23T05:00:50;4.30;99.90
10512;DHT22;5304;48.604;2.096;2024-02-23T05:03:34;4.30;99.90
10512;DHT22;5304;48.604;2.096;2024-02-23T05:06:19;4.20;99.90
10512;DHT22;5304;48.604;2.096;2024-02-23T05:09:03;4.30;99.90
10512;DHT22;5304;48.604;2.096;2024-02-23T05:11:48;4.20;99.90
10512;DHT22;5304;48.604;2.096;2024-02-23T05:14:33;4.20;99.90
10512;DHT22;5304;48.604;2.096;2024-02-23T05:17:17;4.20;99.90
10512;DHT22;5304;48.604;2.096;2024-02-23T05:20:03;4.10;99.90
10512;DHT22;5304;48.604;2.096;2024-02-23T05:22:54;4.10;99.90
10512;DHT22;5304;48.604;2.096;2024-02-23T05:25:38;4.10;99.90
10512;DHT22;5304;48.604;2.096;2024-02-23T05:28:22;4.10;99.90
10512;DHT22;5304;48.604;2.096;2024-02-23T05:31:06;4.10;99.90
10512;DHT22;5304;48.604;2.096;2024-02-23T05:33:51;4.00;99.90
10512;DHT22;5304;48.604;2.096;2024-02-23T05:36:35;4.00;99.90
10512;DHT22;5304;48.604;2.096;2024-02-23T05:39:19;4.10;99.90
10512;DHT22;5304;48.604;2.096;2024-02-23T05:42:04;4.00;99.90
10512;DHT22;5304;48.604;2.096;2024-02-23T05:44:48;4.00;99.90
10512;DHT22;5304;48.604;2.096;2024-02-23T05:47:32;4.10;99.90
10512;DHT22;5304;48.604;2.096;2024-02-23T05:50:16;4.10;99.90
10512;DHT22;5304;48.604;2.096;2024-02-23T05:53:01;4.10;99.90
10512;DHT22;5304;48.604;2.096;2024-02-23T05:55:46;4.10;99.90
10512;DHT22;5304;48.604;2.096;2024-02-23T05:58:31;4.00;99.90
10512;DHT22;5304;48.604;2.096;2024-02-23T06:01:15;4.10;99.90
10512;DHT22;5304;48.604;2.096;2024-02-23T06:04:00;4.10;99.90
10512;DHT22;5304;48.604;2.096;2024-02-23T06:06:44;4.10;99.90
10512;DHT22;5304;48.604;2.096;2024-02-23T06:09:29;4.10;99.90
10512;DHT22;5304;48.604;2.096;2024-02-23T06:12:14;4.10;99.90
10512;DHT22;5304;48.604;2.096;2024-02-23T06:14:58;4.10;99.90
10512;DHT22;5304;48.604;2.096;2024-02-23T06:17:43;4.10;99.90
10512;DHT22;5304;48.604;2.096;2024-02-23T06:20:28;4.20;99.90
10512;DHT22;5304;48.604;2.096;2024-02-23T06:23:13;4.10;99.90
10512;DHT22;5304;48.604;2.096;2024-02-23T06:25:57;4.10;99.90
10512;DHT22;5304;48.604;2.096;2024-02-23T06:28:42;4.10;99.90
10512;DHT22;5304;48.604;2.096;2024-02-23T06:31:26;4.10;99.90
10512;DHT22;5304;48.604;2.096;2024-02-23T06:34:11;4.10;99.90
10512;DHT22;5304;48.604;2.096;2024-02-23T06:36:55;4.10;99.90
10512;DHT22;5304;48.604;2.096;2024-02-23T06:39:39;4.10;99.90
10512;DHT22;5304;48.604;2.096;2024-02-23T06:42:23;4.10;99.90
10512;DHT22;5304;48.604;2.096;2024-02-23T06:45:08;4.10;99.90
10512;DHT22;5304;48.604;2.096;2024-02-23T06:47:52;4.00;99.90
10512;DHT22;5304;48.604;2.096;2024-02-23T06:50:36;4.10;99.90
10512;DHT22;5304;48.604;2.096;2024-02-23T06:53:21;4.10;99.90
10512;DHT22;5304;48.604;2.096;2024-02-23T06:56:05;4.00;99.90
10512;DHT22;5304;48.604;2.096;2024-02-23T06:58:49;4.00;99.90
10512;DHT22;5304;48.604;2.096;2024-02-23T07:01:33;4.00;99.90
10512;DHT22;5304;48.604;2.096;2024-02-23T07:04:19;4.00;99.90
10512;DHT22;5304;48.604;2.096;2024-02-23T07:07:04;4.10;99.90
10512;DHT22;5304;48.604;2.096;2024-02-23T07:09:51;4.00;99.90
10512;DHT22;5304;48.604;2.096;2024-02-23T07:12:36;4.10;99.90
10512;DHT22;5304;48.604;2.096;2024-02-23T07:15:20;4.10;99.90
10512;DHT22;5304;48.604;2.096;2024-02-23T07:18:05;4.20;99.90
10512;DHT22;5304;48.604;2.096;2024-02-23T07:20:49;4.20;99.90
10512;DHT22;5304;48.604;2.096;2024-02-23T07:23:33;4.30;99.90
10512;DHT22;5304;48.604;2.096;2024-02-23T07:26:17;4.40;99.90
10512;DHT22;5304;48.604;2.096;2024-02-23T07:29:04;4.50;99.90
10512;DHT22;5304;48.604;2.096;2024-02-23T07:31:48;4.60;99.90
10512;DHT22;5304;48.604;2.096;2024-02-23T07:34:32;4.70;99.90
10512;DHT22;5304;48.604;2.096;2024-02-23T07:37:16;4.80;99.90
10512;DHT22;5304;48.604;2.096;2024-02-23T07:40:01;4.90;99.90
10512;DHT22;5304;48.604;2.096;2024-02-23T07:42:47;5.00;99.90
10512;DHT22;5304;48.604;2.096;2024-02-23T07:45:31;4.90;99.90
10512;DHT22;5304;48.604;2.096;2024-02-23T07:48:17;4.90;99.90
10512;DHT22;5304;48.604;2.096;2024-02-23T07:51:05;5.00;99.90
10512;DHT22;5304;48.604;2.096;2024-02-23T07:53:49;5.00;99.90
10512;DHT22;5304;48.604;2.096;2024-02-23T07:56:34;5.00;99.90
10512;DHT22;5304;48.604;2.096;2024-02-23T07:59:19;5.00;99.90
10512;DHT22;5304;48.604;2.096;2024-02-23T08:02:03;5.00;99.90
10512;DHT22;5304;48.604;2.096;2024-02-23T08:04:48;5.00;99.90
10512;DHT22;5304;48.604;2.096;2024-02-23T08:07:34;5.00;99.90
10512;DHT22;5304;48.604;2.096;2024-02-23T08:10:18;5.10;99.90
10512;DHT22;5304;48.604;2.096;2024-02-23T08:13:03;5.00;99.90
10512;DHT22;5304;48.604;2.096;2024-02-23T08:15:47;5.10;99.90
10512;DHT22;5304;48.604;2.096;2024-02-23T08:18:32;5.10;99.90
10512;DHT22;5304;48.604;2.096;2024-02-23T08:21:16;5.20;99.90
10512;DHT22;5304;48.604;2.096;2024-02-23T08:24:00;5.20;99.90
10512;DHT22;5304;48.604;2.096;2024-02-23T08:26:44;5.30;99.90
10512;DHT22;5304;48.604;2.096;2024-02-23T08:29:29;5.40;99.90
10512;DHT22;5304;48.604;2.096;2024-02-23T08:32:14;5.50;99.90
10512;DHT22;5304;48.604;2.096;2024-02-23T08:34:58;5.60;99.90
10512;DHT22;5304;48.604;2.096;2024-02-23T08:37:43;5.50;99.90
10512;DHT22;5304;48.604;2.096;2024-02-23T08:40:28;5.60;99.90
10512;DHT22;5304;48.604;2.096;2024-02-23T08:43:13;5.70;99.90
10512;DHT22;5304;48.604;2.096;2024-02-23T08:45:57;5.90;99.90
10512;DHT22;5304;48.604;2.096;2024-02-23T08:48:42;6.00;99.90
10512;DHT22;5304;48.604;2.096;2024-02-23T08:51:26;6.00;99.90
10512;DHT22;5304;48.604;2.096;2024-02-23T08:54:10;6.10;99.90
10512;DHT22;5304;48.604;2.096;2024-02-23T08:56:54;6.10;99.90
10512;DHT22;5304;48.604;2.096;2024-02-23T08:59:39;6.20;99.90
10512;DHT22;5304;48.604;2.096;2024-02-23T09:02:24;6.30;99.90
10512;DHT22;5304;48.604;2.096;2024-02-23T09:05:11;6.30;99.90
10512;DHT22;5304;48.604;2.096;2024-02-23T09:07:55;6.20;99.90
10512;DHT22;5304;48.604;2.096;2024-02-23T09:10:39;6.10;99.90
10512;DHT22;5304;48.604;2.096;2024-02-23T09:13:24;6.10;99.90
10512;DHT22;5304;48.604;2.096;2024-02-23T09:16:08;6.10;99.90
10512;DHT22;5304;48.604;2.096;2024-02-23T09:18:53;6.20;99.90
10512;DHT22;5304;48.604;2.096;2024-02-23T09:21:37;6.20;99.90
10512;DHT22;5304;48.604;2.096;2024-02-23T09:24:21;6.30;99.90
10512;DHT22;5304;48.604;2.096;2024-02-23T09:27:05;6.40;99.90
10512;DHT22;5304;48.604;2.096;2024-02-23T09:29:49;6.40;99.90
10512;DHT22;5304;48.604;2.096;2024-02-23T09:32:34;6.50;99.90
10512;DHT22;5304;48.604;2.096;2024-02-23T09:35:18;6.60;99.90
10512;DHT22;5304;48.604;2.096;2024-02-23T09:38:03;6.50;99.90
10512;DHT22;5304;48.604;2.096;2024-02-23T09:40:47;6.50;99.90
10512;DHT22;5304;48.604;2.096;2024-02-23T09:43:32;6.60;99.90
10512;DHT22;5304;48.604;2.096;2024-02-23T09:46:17;6.50;99.90
10512;DHT22;5304;48.604;2.096;2024-02-23T09:49:02;6.50;99.90
10512;DHT22;5304;48.604;2.096;2024-02-23T09:51:47;6.60;99.90
10512;DHT22;5304;48.604;2.096;2024-02-23T09:54:32;6.60;99.90
10512;DHT22;5304;48.604;2.096;2024-02-23T09:57:17;6.80;99.90
10512;DHT22;5304;48.604;2.096;2024-02-23T10:00:03;7.00;99.90
10512;DHT22;5304;48.604;2.096;2024-02-23T10:02:51;7.10;99.90
10512;DHT22;5304;48.604;2.096;2024-02-23T10:05:36;7.00;99.90
10512;DHT22;5304;48.604;2.096;2024-02-23T10:08:21;7.00;99.90
10512;DHT22;5304;48.604;2.096;2024-02-23T10:11:05;6.90;99.90
10512;DHT22;5304;48.604;2.096;2024-02-23T10:13:50;6.80;99.90
10512;DHT22;5304;48.604;2.096;2024-02-23T10:16:34;6.70;99.90
10512;DHT22;5304;48.604;2.096;2024-02-23T10:19:22;6.70;99.90
10512;DHT22;5304;48.604;2.096;2024-02-23T10:22:06;6.60;99.90
10512;DHT22;5304;48.604;2.096;2024-02-23T10:24:51;6.70;99.90
10512;DHT22;5304;48.604;2.096;2024-02-23T10:27:35;6.70;99.90
10512;DHT22;5304;48.604;2.096;2024-02-23T10:30:19;6.90;99.90
10512;DHT22;5304;48.604;2.096;2024-02-23T10:33:05;7.20;99.90
10512;DHT22;5304;48.604;2.096;2024-02-23T10:35:56;7.30;99.90
10512;DHT22;5304;48.604;2.096;2024-02-23T10:38:45;7.40;99.90
10512;DHT22;5304;48.604;2.096;2024-02-23T10:41:34;7.40;99.90
10512;DHT22;5304;48.604;2.096;2024-02-23T10:44:18;7.40;99.90
10512;DHT22;5304;48.604;2.096;2024-02-23T10:47:04;7.50;99.90
10512;DHT22;5304;48.604;2.096;2024-02-23T10:49:49;7.50;99.90
10512;DHT22;5304;48.604;2.096;2024-02-23T10:52:33;7.50;99.90
10512;DHT22;5304;48.604;2.096;2024-02-23T10:55:18;7.60;99.90
10512;DHT22;5304;48.604;2.096;2024-02-23T10:58:06;7.70;99.90
10512;DHT22;5304;48.604;2.096;2024-02-23T11:01:04;7.90;99.90
10512;DHT22;5304;48.604;2.096;2024-02-23T11:03:49;7.90;99.90
10512;DHT22;5304;48.604;2.096;2024-02-23T11:06:35;7.80;99.90
10512;DHT22;5304;48.604;2.096;2024-02-23T11:09:26;7.80;99.90
10512;DHT22;5304;48.604;2.096;2024-02-23T11:12:10;8.10;99.90
10512;DHT22;5304;48.604;2.096;2024-02-23T11:14:58;8.40;99.90
10512;DHT22;5304;48.604;2.096;2024-02-23T11:17:49;8.50;99.90
10512;DHT22;5304;48.604;2.096;2024-02-23T11:20:35;8.60;99.90
10512;DHT22;5304;48.604;2.096;2024-02-23T11:23:20;8.50;99.90
10512;DHT22;5304;48.604;2.096;2024-02-23T11:26:06;8.50;99.90
10512;DHT22;5304;48.604;2.096;2024-02-23T11:28:53;8.30;99.90
10512;DHT22;5304;48.604;2.096;2024-02-23T11:31:44;8.10;99.90
10512;DHT22;5304;48.604;2.096;2024-02-23T11:34:30;7.90;99.90
10512;DHT22;5304;48.604;2.096;2024-02-23T11:37:18;7.80;99.90
10512;DHT22;5304;48.604;2.096;2024-02-23T11:40:05;8.00;99.90
10512;DHT22;5304;48.604;2.096;2024-02-23T11:42:50;8.30;99.90
10512;DHT22;5304;48.604;2.096;2024-02-23T11:45:35;8.60;99.90
10512;DHT22;5304;48.604;2.096;2024-02-23T11:48:20;8.60;99.90
10512;DHT22;5304;48.604;2.096;2024-02-23T11:51:04;8.50;99.90
10512;DHT22;5304;48.604;2.096;2024-02-23T11:53:50;8.90;99.90
10512;DHT22;5304;48.604;2.096;2024-02-23T11:56:34;8.80;99.90
10512;DHT22;5304;48.604;2.096;2024-02-23T11:59:20;9.10;99.90
10512;DHT22;5304;48.604;2.096;2024-02-23T12:02:04;9.20;99.90
10512;DHT22;5304;48.604;2.096;2024-02-23T12:04:48;9.30;99.90
10512;DHT22;5304;48.604;2.096;2024-02-23T12:07:33;8.90;99.90
10512;DHT22;5304;48.604;2.096;2024-02-23T12:10:18;8.70;99.90
10512;DHT22;5304;48.604;2.096;2024-02-23T12:13:03;8.60;99.90
10512;DHT22;5304;48.604;2.096;2024-02-23T12:15:48;8.30;99.90
10512;DHT22;5304;48.604;2.096;2024-02-23T12:18:36;8.30;99.90
10512;DHT22;5304;48.604;2.096;2024-02-23T12:21:22;8.30;99.90
10512;DHT22;5304;48.604;2.096;2024-02-23T12:24:07;8.40;99.90
10512;DHT22;5304;48.604;2.096;2024-02-23T12:26:55;8.90;99.90
10512;DHT22;5304;48.604;2.096;2024-02-23T12:29:40;9.10;99.90
10512;DHT22;5304;48.604;2.096;2024-02-23T12:32:25;9.10;99.90
10512;DHT22;5304;48.604;2.096;2024-02-23T12:35:12;9.00;99.90
10512;DHT22;5304;48.604;2.096;2024-02-23T12:37:56;8.90;99.90
10512;DHT22;5304;48.604;2.096;2024-02-23T12:40:41;8.90;99.90
10512;DHT22;5304;48.604;2.096;2024-02-23T12:43:25;8.70;99.90
10512;DHT22;5304;48.604;2.096;2024-02-23T12:46:10;8.60;99.90
10512;DHT22;5304;48.604;2.096;2024-02-23T12:48:58;8.60;99.90
10512;DHT22;5304;48.604;2.096;2024-02-23T12:51:42;8.40;99.90
10512;DHT22;5304;48.604;2.096;2024-02-23T12:54:26;8.30;99.90
10512;DHT22;5304;48.604;2.096;2024-02-23T12:57:11;7.80;99.90
10512;DHT22;5304;48.604;2.096;2024-02-23T12:59:55;7.00;99.90
10512;DHT22;5304;48.604;2.096;2024-02-23T13:02:39;6.90;99.90
10512;DHT22;5304;48.604;2.096;2024-02-23T13:05:24;7.20;99.90
10512;DHT22;5304;48.604;2.096;2024-02-23T13:08:08;7.70;99.90
10512;DHT22;5304;48.604;2.096;2024-02-23T13:10:53;8.00;99.90
10512;DHT22;5304;48.604;2.096;2024-02-23T13:13:38;8.40;99.90
10512;DHT22;5304;48.604;2.096;2024-02-23T13:16:22;8.80;99.90
10512;DHT22;5304;48.604;2.096;2024-02-23T13:19:06;8.80;99.90
10512;DHT22;5304;48.604;2.096;2024-02-23T13:21:51;8.90;99.90
10512;DHT22;5304;48.604;2.096;2024-02-23T13:24:36;8.80;99.90
10512;DHT22;5304;48.604;2.096;2024-02-23T13:27:20;8.90;99.90
10512;DHT22;5304;48.604;2.096;2024-02-23T13:30:05;8.90;99.90
10512;DHT22;5304;48.604;2.096;2024-02-23T13:32:52;8.90;99.90
10512;DHT22;5304;48.604;2.096;2024-02-23T13:35:37;9.00;99.90
10512;DHT22;5304;48.604;2.096;2024-02-23T13:38:21;8.80;99.90
10512;DHT22;5304;48.604;2.096;2024-02-23T13:41:05;8.80;99.90
10512;DHT22;5304;48.604;2.096;2024-02-23T13:43:50;8.60;99.90
10512;DHT22;5304;48.604;2.096;2024-02-23T13:46:38;8.30;99.90
10512;DHT22;5304;48.604;2.096;2024-02-23T13:49:22;8.10;99.90
10512;DHT22;5304;48.604;2.096;2024-02-23T13:52:06;7.90;99.90
10512;DHT22;5304;48.604;2.096;2024-02-23T13:54:51;7.40;99.90
10512;DHT22;5304;48.604;2.096;2024-02-23T13:57:35;7.30;99.90
10512;DHT22;5304;48.604;2.096;2024-02-23T14:00:20;7.30;99.90
10512;DHT22;5304;48.604;2.096;2024-02-23T14:03:05;7.60;99.90
10512;DHT22;5304;48.604;2.096;2024-02-23T14:05:49;8.00;99.90
10512;DHT22;5304;48.604;2.096;2024-02-23T14:08:34;8.30;99.90
10512;DHT22;5304;48.604;2.096;2024-02-23T14:11:21;8.50;99.90
10512;DHT22;5304;48.604;2.096;2024-02-23T14:14:06;8.50;99.90
10512;DHT22;5304;48.604;2.096;2024-02-23T14:16:51;8.60;99.90
10512;DHT22;5304;48.604;2.096;2024-02-23T14:19:35;8.70;99.90
10512;DHT22;5304;48.604;2.096;2024-02-23T14:22:19;8.50;99.90
10512;DHT22;5304;48.604;2.096;2024-02-23T14:25:04;8.40;99.90
10512;DHT22;5304;48.604;2.096;2024-02-23T14:27:48;8.20;99.90
10512;DHT22;5304;48.604;2.096;2024-02-23T14:30:33;8.10;99.90
10512;DHT22;5304;48.604;2.096;2024-02-23T14:33:17;8.10;99.90
10512;DHT22;5304;48.604;2.096;2024-02-23T14:36:03;8.00;99.90
10512;DHT22;5304;48.604;2.096;2024-02-23T14:38:47;8.10;99.90
10512;DHT22;5304;48.604;2.096;2024-02-23T14:41:31;7.90;99.90
10512;DHT22;5304;48.604;2.096;2024-02-23T14:44:16;7.70;99.90
10512;DHT22;5304;48.604;2.096;2024-02-23T14:47:00;7.60;99.90
10512;DHT22;5304;48.604;2.096;2024-02-23T14:49:44;7.50;99.90
10512;DHT22;5304;48.604;2.096;2024-02-23T14:52:29;7.40;99.90
10512;DHT22;5304;48.604;2.096;2024-02-23T14:55:13;7.30;99.90
10512;DHT22;5304;48.604;2.096;2024-02-23T14:57:58;7.20;99.90
10512;DHT22;5304;48.604;2.096;2024-02-23T15:00:42;7.30;99.90
10512;DHT22;5304;48.604;2.096;2024-02-23T15:03:27;7.40;99.90
10512;DHT22;5304;48.604;2.096;2024-02-23T15:06:11;7.40;99.90
10512;DHT22;5304;48.604;2.096;2024-02-23T15:08:55;7.50;99.90
10512;DHT22;5304;48.604;2.096;2024-02-23T15:11:40;7.70;99.90
10512;DHT22;5304;48.604;2.096;2024-02-23T15:14:24;7.90;99.90
10512;DHT22;5304;48.604;2.096;2024-02-23T15:17:08;7.90;99.90
10512;DHT22;5304;48.604;2.096;2024-02-23T15:19:52;7.90;99.90
10512;DHT22;5304;48.604;2.096;2024-02-23T15:22:37;7.90;99.90
10512;DHT22;5304;48.604;2.096;2024-02-23T15:25:26;7.90;99.90
10512;DHT22;5304;48.604;2.096;2024-02-23T15:28:11;7.80;99.90
10512;DHT22;5304;48.604;2.096;2024-02-23T15:30:55;7.70;99.90
10512;DHT22;5304;48.604;2.096;2024-02-23T15:33:39;7.80;99.90
10512;DHT22;5304;48.604;2.096;2024-02-23T15:36:24;7.70;99.90
10512;DHT22;5304;48.604;2.096;2024-02-23T15:39:08;7.70;99.90
10512;DHT22;5304;48.604;2.096;2024-02-23T15:41:52;7.70;99.90
10512;DHT22;5304;48.604;2.096;2024-02-23T15:44:36;7.50;99.90
10512;DHT22;5304;48.604;2.096;2024-02-23T15:47:22;7.50;99.90
10512;DHT22;5304;48.604;2.096;2024-02-23T15:50:06;7.40;99.90
10512;DHT22;5304;48.604;2.096;2024-02-23T15:52:50;7.40;99.90
10512;DHT22;5304;48.604;2.096;2024-02-23T15:55:35;7.50;99.90
10512;DHT22;5304;48.604;2.096;2024-02-23T15:58:21;7.60;99.90
10512;DHT22;5304;48.604;2.096;2024-02-23T16:01:05;7.60;99.90
10512;DHT22;5304;48.604;2.096;2024-02-23T16:03:49;7.60;99.90
10512;DHT22;5304;48.604;2.096;2024-02-23T16:06:34;7.60;99.90
10512;DHT22;5304;48.604;2.096;2024-02-23T16:09:19;7.60;99.90
10512;DHT22;5304;48.604;2.096;2024-02-23T16:12:05;7.60;99.90
10512;DHT22;5304;48.604;2.096;2024-02-23T16:14:49;7.60;99.90
10512;DHT22;5304;48.604;2.096;2024-02-23T16:17:34;7.50;99.90
10512;DHT22;5304;48.604;2.096;2024-02-23T16:20:20;7.50;99.90
10512;DHT22;5304;48.604;2.096;2024-02-23T16:23:04;7.40;99.90
10512;DHT22;5304;48.604;2.096;2024-02-23T16:25:48;7.30;99.90
10512;DHT22;5304;48.604;2.096;2024-02-23T16:28:33;7.30;99.90
10512;DHT22;5304;48.604;2.096;2024-02-23T16:31:17;7.30;99.90
10512;DHT22;5304;48.604;2.096;2024-02-23T16:34:01;7.30;99.90
10512;DHT22;5304;48.604;2.096;2024-02-23T16:36:45;7.30;99.90
10512;DHT22;5304;48.604;2.096;2024-02-23T16:39:30;6.10;99.90
10512;DHT22;5304;48.604;2.096;2024-02-23T16:42:14;5.50;99.90
10512;DHT22;5304;48.604;2.096;2024-02-23T16:44:58;5.30;99.90
10512;DHT22;5304;48.604;2.096;2024-02-23T16:47:42;5.30;99.90
10512;DHT22;5304;48.604;2.096;2024-02-23T16:50:27;5.30;99.90
10512;DHT22;5304;48.604;2.096;2024-02-23T16:53:11;5.40;99.90
10512;DHT22;5304;48.604;2.096;2024-02-23T16:55:55;5.40;99.90
10512;DHT22;5304;48.604;2.096;2024-02-23T16:58:44;5.40;99.90
10512;DHT22;5304;48.604;2.096;2024-02-23T17:01:28;5.30;99.90
10512;DHT22;5304;48.604;2.096;2024-02-23T17:04:12;5.30;99.90
10512;DHT22;5304;48.604;2.096;2024-02-23T17:06:57;5.20;99.90
10512;DHT22;5304;48.604;2.096;2024-02-23T17:09:41;5.20;99.90
10512;DHT22;5304;48.604;2.096;2024-02-23T17:12:27;5.20;99.90
10512;DHT22;5304;48.604;2.096;2024-02-23T17:15:12;5.10;99.90
10512;DHT22;5304;48.604;2.096;2024-02-23T17:17:56;5.10;99.90
10512;DHT22;5304;48.604;2.096;2024-02-23T17:20:40;5.10;99.90
10512;DHT22;5304;48.604;2.096;2024-02-23T17:23:25;5.20;99.90
10512;DHT22;5304;48.604;2.096;2024-02-23T17:26:09;5.10;99.90
10512;DHT22;5304;48.604;2.096;2024-02-23T17:28:53;5.10;99.90
10512;DHT22;5304;48.604;2.096;2024-02-23T17:31:37;5.10;99.90
10512;DHT22;5304;48.604;2.096;2024-02-23T17:34:22;5.10;99.90
10512;DHT22;5304;48.604;2.096;2024-02-23T17:37:06;5.10;99.90
10512;DHT22;5304;48.604;2.096;2024-02-23T17:39:56;5.10;99.90
10512;DHT22;5304;48.604;2.096;2024-02-23T17:42:41;5.00;99.90
10512;DHT22;5304;48.604;2.096;2024-02-23T17:45:25;5.00;99.90
10512;DHT22;5304;48.604;2.096;2024-02-23T17:48:09;4.90;99.90
10512;DHT22;5304;48.604;2.096;2024-02-23T17:50:54;4.90;99.90
10512;DHT22;5304;48.604;2.096;2024-02-23T17:53:38;4.70;99.90
10512;DHT22;5304;48.604;2.096;2024-02-23T17:56:22;4.70;99.90